Sarah Desgagnes — XJAB — position and weather

sailwx.info

Track history (hours):
 
Tides and Currents Weather Stations Pressure Air Temp Water Temp Dewpoint Dewpoint Depression Visibility Wind Speed Wind Dir Waves Ship Positions

Sarah Desgagnes

Last reported at 2015-Mar-27 03:25 UTC. Time now 2015-Mar-29 07:24 UTC.
Position N 40°52' W 073°56'.

Length 148 m; draft 6.2 m.

Type: Tanker. MMSI: 316012308.

Date/timePositionNaut miles runAvg speedWind from/ knotsBaromVisibWave heightAir tempDewpointWater temp
2015-Mar-27 03:25N 40°52' W 073°56'8 9.1
2015-Mar-27 02:33N 40°45' W 074°01'1110.9
2015-Mar-27 01:33N 40°34' W 074°02'1110.5
2015-Mar-27 00:32N 40°28' W 073°51'5 5.4
2015-Mar-26 23:33N 40°27' W 073°44'9 8.2
2015-Mar-26 22:27N 40°29' W 073°32'4 4.0
2015-Mar-26 21:31N 40°32' W 073°29'0 0.0
2015-Mar-26 20:13N 40°32' W 073°29'0 0.0
2015-Mar-26 19:25N 40°32' W 073°29'0 0.0
2015-Mar-26 18:19N 40°32' W 073°29'0 0.0
2015-Mar-26 14:25N 40°32' W 073°29'0 0.0
2015-Mar-26 13:31N 40°32' W 073°29'0 0.1
2015-Mar-26 12:28N 40°32' W 073°29'4 4.2
2015-Mar-26 11:31N 40°29' W 073°26'8 8.9
2015-Mar-26 10:33N 40°30' W 073°15'9 8.7
2015-Mar-26 09:33N 40°30' W 073°03'9 8.8
2015-Mar-26 08:33N 40°30' W 072°52'9 8.7
2015-Mar-26 07:32N 40°30' W 072°40'8 8.5
2015-Mar-26 06:33N 40°31' W 072°29'9 8.6
2015-Mar-26 05:33N 40°31' W 072°18'9 8.8
2015-Mar-26 04:33N 40°31' W 072°06'9 9.0
2015-Mar-26 03:33N 40°31' W 071°54'9 9.3
2015-Mar-26 02:33N 40°32' W 071°42'10 9.8
2015-Mar-26 01:33N 40°32' W 071°29'10 9.9
2015-Mar-26 00:33N 40°32' W 071°16'1010.0
2015-Mar-25 23:33N 40°32' W 071°03'1414.4
2015-Mar-25 22:33N 40°33' W 070°44'10 9.9
2015-Mar-25 21:33N 40°33' W 070°31'10 9.8
2015-Mar-25 20:33N 40°33' W 070°18'10 9.7
2015-Mar-25 19:33N 40°33' W 070°05'10 9.6
2015-Mar-25 18:33N 40°33' W 069°53'10 9.7
2015-Mar-25 17:33N 40°34' W 069°40'9 9.1
2015-Mar-25 16:33N 40°35' W 069°28'13 9.1
2015-Mar-25 15:06N 40°34' W 069°11'5 9.9
2015-Mar-25 14:33N 40°34' W 069°04'10 9.9
2015-Mar-25 13:30N 40°33' W 068°50'  
Track history (hours):
 
Tides and Currents Weather Stations Pressure Air Temp Water Temp Dewpoint Dewpoint Depression Visibility Wind Speed Wind Dir Waves Ship Positions

Sarah Desgagnes

Last reported at 2015-Mar-27 03:25 UTC. Time now 2015-Mar-29 07:24 UTC.
Position N 40°52' W 073°56'.

Length 148 m; draft 6.2 m.

Type: Tanker. MMSI: 316012308.

Date/timePositionNaut miles runAvg speedWind from/ knotsBaromVisibWave heightAir tempDewpointWater temp
2015-Mar-27 03:25N 40°52' W 073°56'8 9.1
2015-Mar-27 02:33N 40°45' W 074°01'1110.9
2015-Mar-27 01:33N 40°34' W 074°02'1110.5
2015-Mar-27 00:32N 40°28' W 073°51'5 5.4
2015-Mar-26 23:33N 40°27' W 073°44'9 8.2
2015-Mar-26 22:27N 40°29' W 073°32'4 4.0
2015-Mar-26 21:31N 40°32' W 073°29'0 0.0
2015-Mar-26 20:13N 40°32' W 073°29'0 0.0
2015-Mar-26 19:25N 40°32' W 073°29'0 0.0
2015-Mar-26 18:19N 40°32' W 073°29'0 0.0
2015-Mar-26 14:25N 40°32' W 073°29'0 0.0
2015-Mar-26 13:31N 40°32' W 073°29'0 0.1
2015-Mar-26 12:28N 40°32' W 073°29'4 4.2
2015-Mar-26 11:31N 40°29' W 073°26'8 8.9
2015-Mar-26 10:33N 40°30' W 073°15'9 8.7
2015-Mar-26 09:33N 40°30' W 073°03'9 8.8
2015-Mar-26 08:33N 40°30' W 072°52'9 8.7
2015-Mar-26 07:32N 40°30' W 072°40'8 8.5
2015-Mar-26 06:33N 40°31' W 072°29'9 8.6
2015-Mar-26 05:33N 40°31' W 072°18'9 8.8
2015-Mar-26 04:33N 40°31' W 072°06'9 9.0
2015-Mar-26 03:33N 40°31' W 071°54'9 9.3
2015-Mar-26 02:33N 40°32' W 071°42'10 9.8
2015-Mar-26 01:33N 40°32' W 071°29'10 9.9
2015-Mar-26 00:33N 40°32' W 071°16'1010.0
2015-Mar-25 23:33N 40°32' W 071°03'1414.4
2015-Mar-25 22:33N 40°33' W 070°44'10 9.9
2015-Mar-25 21:33N 40°33' W 070°31'10 9.8
2015-Mar-25 20:33N 40°33' W 070°18'10 9.7
2015-Mar-25 19:33N 40°33' W 070°05'10 9.6
2015-Mar-25 18:33N 40°33' W 069°53'10 9.7
2015-Mar-25 17:33N 40°34' W 069°40'9 9.1
2015-Mar-25 16:33N 40°35' W 069°28'13 9.1
2015-Mar-25 15:06N 40°34' W 069°11'5 9.9
2015-Mar-25 14:33N 40°34' W 069°04'10 9.9
2015-Mar-25 13:30N 40°33' W 068°50'  

Dump ship's entire track history